Date,TemperatureHighF,TemperatureAvgF,TemperatureLowF,DewpointHighF,DewpointAvgF,DewpointLowF,HumidityHigh,HumidityAvg,HumidityLow,PressureMaxIn,PressureMinIn,WindSpeedMaxMPH,WindSpeedAvgMPH,GustSpeedMaxMPH,PrecipitationSumIn
2013-7-1,98.1,82.3,68.7,64.7,59.2,55.3,71,48,27,29.83,29.71,10,3,16,0.00
2013-7-2,99.0,80.5,63.1,63.5,58.6,51.9,77,51,21,29.88,29.76,13,2,17,0.00
2013-7-3,91.0,75.3,59.9,61.9,55.5,43.4,87,54,28,29.89,29.77,10,3,18,0.00
2013-7-4,82.4,68.3,50.8,48.4,44.3,34.6,82,46,22,29.89,29.75,10,4,16,0.00
2013-7-5,80.0,63.6,45.8,45.7,39.5,31.0,87,47,21,29.85,29.74,6,2,11,0.00
2013-7-6,84.2,63.9,40.6,48.1,37.7,30.9,78,44,16,29.83,29.68,5,1,12,0.00
2013-7-7,88.0,68.9,48.8,52.5,47.1,42.0,79,51,22,29.79,29.64,11,2,17,0.00
2013-7-8,86.6,68.2,46.7,51.8,42.5,35.3,86,46,17,29.93,29.78,7,2,14,0.00
2013-7-9,95.3,74.5,53.0,54.9,47.7,42.8,72,43,17,29.96,29.78,10,3,17,0.00
2013-7-10,90.3,74.1,56.0,53.4,48.6,42.0,80,45,20,29.87,29.67,11,3,18,0.00
2013-7-11,75.9,64.7,58.2,47.4,44.4,33.0,65,48,33,29.81,29.72,9,2,14,0.00
2013-7-12,77.4,61.7,44.1,43.2,37.6,25.8,86,46,17,29.95,29.78,13,3,23,0.00
2013-7-13,79.8,62.6,41.2,43.3,36.1,28.3,82,44,18,30.04,29.92,8,2,12,0.00
2013-7-14,89.5,69.9,46.2,48.1,37.4,29.0,59,33,17,30.02,29.79,10,2,17,0.00
2013-7-15,88.3,71.0,49.9,45.9,41.5,37.6,72,39,18,29.86,29.67,7,2,14,0.00
2013-7-16,84.5,71.5,61.1,50.3,41.6,35.3,53,35,23,29.81,29.68,8,3,11,0.00
2013-7-17,81.9,65.1,50.5,49.1,44.1,39.1,74,49,26,29.99,29.82,9,1,13,0.00
2013-7-18,93.6,73.1,51.3,50.0,42.4,34.7,67,39,14,30.03,29.85,7,2,10,0.00
2013-7-19,93.5,75.0,51.7,51.9,39.7,29.1,70,35,11,29.95,29.78,6,2,11,0.00
2013-7-20,94.4,75.1,53.7,51.2,38.8,20.6,70,34,9,29.85,29.70,8,2,13,0.00
2013-7-21,95.9,74.1,52.8,51.0,39.5,16.2,68,36,6,29.77,29.66,9,2,18,0.00
2013-7-22,92.8,74.5,53.6,47.4,38.4,30.1,62,32,12,29.83,29.74,10,2,16,0.00
2013-7-23,96.7,75.7,55.1,51.0,43.4,26.6,67,38,12,29.87,29.74,11,3,14,0.00
2013-7-24,93.7,76.3,58.6,49.9,41.8,22.1,64,34,10,29.87,29.78,8,2,13,0.00
2013-7-25,96.7,77.1,55.4,49.8,42.2,26.9,65,34,11,29.91,29.81,9,2,15,0.00
2013-7-26,96.0,77.7,58.1,46.1,38.0,26.5,57,27,11,29.93,29.82,10,2,17,0.00
2013-7-27,86.8,69.8,49.7,43.6,38.0,26.9,65,35,12,29.94,29.78,10,3,15,0.00
2013-7-28,83.1,65.6,45.4,45.5,38.3,28.3,71,42,16,29.85,29.74,9,2,16,0.00
2013-7-29,83.9,65.7,45.2,48.9,42.3,37.3,79,48,20,29.88,29.75,9,2,13,0.00
2013-7-30,86.1,60.2,44.7,48.4,43.5,29.0,83,59,13,29.98,29.88,7,1,12,0.00
2013-7-31,84.5,67.5,56.1,49.3,44.7,35.1,69,48,20,29.97,29.80,10,1,14,0.00